WetterOnline ( https://www.wetteronline.de )

Wetter aktuell Greifswald

Aktuelles Wetter: Greifswald (6m)

6-stündlich | Neueste Meldungen
Ortszeit Temperatur Wetter
Mo, 17.06. 2:00 15.7° C bedeckt
So, 16.06. 20:00 19.4° C bedeckt
So, 16.06. 14:00 21.9° C leicht bewölkt
So, 16.06. 8:00 16.7° C fast wolkenlos
So, 16.06. 2:00 10.5° C leicht bewölkt
Sa, 15.06. 20:00 19.0° C wolkenlos
Sa, 15.06. 14:00 18.1° C bewölkt
Sa, 15.06. 8:00 16.6° C leicht bewölkt
Ortszeit Temperatur Wetter
Mo, 17.06. 2:30 15.0° C bedeckt
Mo, 17.06. 2:20 15.0° C bedeckt
Mo, 17.06. 2:10 15.1° C bedeckt
Mo, 17.06. 2:00 15.7° C bedeckt
Mo, 17.06. 1:50 15.7° C bedeckt
Mo, 17.06. 1:40 15.9° C bedeckt
Mo, 17.06. 1:30 15.6° C bedeckt
Mo, 17.06. 1:00 15.2° C bewölkt
Mo, 17.06. 0:30 15.1° C bewölkt
Mo, 17.06. 0:00 15.3° C bewölkt
So, 16.06. 23:30 15.9° C bewölkt
Ortszeit Relative Feuchte Sichtweite
Mo, 17.06. 2:00 86% 55 km
So, 16.06. 20:00 67% 60 km
So, 16.06. 14:00 41% >70 km
So, 16.06. 8:00 71% 50 km
So, 16.06. 2:00 87% 60 km
Sa, 15.06. 20:00 53% >70 km
Sa, 15.06. 14:00 82% >70 km
Sa, 15.06. 8:00 68% >70 km
Ortszeit Relative Feuchte Sichtweite
Mo, 17.06. 2:30 90% 65 km
Mo, 17.06. 2:20 90% -
Mo, 17.06. 2:10 88% -
Mo, 17.06. 2:00 86% 55 km
Mo, 17.06. 1:50 86% -
Mo, 17.06. 1:40 86% -
Mo, 17.06. 1:30 87% 65 km
Mo, 17.06. 1:00 89% 60 km
Mo, 17.06. 0:30 87% 60 km
Mo, 17.06. 0:00 87% 45 km
So, 16.06. 23:30 82% 45 km
Ortszeit Niederschlagsmenge Niederschlagsart
Mo, 17.06. 2:00 0.1 l/m2 in 6 Std. Regen
So, 16.06. 20:00 0.2 l/m2 in 12 Std. Regen
So, 16.06. 14:00 0.0 l/m2 in 6 Std. -
So, 16.06. 8:00 0.0 l/m2 in 12 Std. -
So, 16.06. 2:00 0.0 l/m2 in 6 Std. -
Sa, 15.06. 20:00 5 l/m2 in 12 Std. Regen
Sa, 15.06. 14:00 3 l/m2 in 6 Std. Regen
Sa, 15.06. 8:00 0.0 l/m2 in 12 Std. -
Ortszeit Niederschlagsmenge Niederschlagsart
Mo, 17.06. 2:30 0.0 l/m2 in 30 Min -
Mo, 17.06. 2:20 keine Meldung -
Mo, 17.06. 2:10 keine Meldung -
Mo, 17.06. 2:00 0.0 l/m2 in 1 Std. Regen
Mo, 17.06. 1:50 keine Meldung -
Mo, 17.06. 1:40 keine Meldung -
Mo, 17.06. 1:30 0.0 l/m2 in 30 Min -
Mo, 17.06. 1:00 0.0 l/m2 in 1 Std. -
Mo, 17.06. 0:30 0.0 l/m2 in 30 Min -
Mo, 17.06. 0:00 <0.05 l/m2 in 1 Std. Regen
So, 16.06. 23:30 <0.05 l/m2 in 30 Min Schneeregen
Ortszeit Stärke Spitze Richtung
km/h Bft. km/h Grad Sektor
Mo, 17.06. 2:00 4 1 - 300° NW
So, 16.06. 20:00 4 1 36 150° SO
So, 16.06. 14:00 14 3 76 210° SW
So, 16.06. 8:00 13 3 20 150° SO
So, 16.06. 2:00 7 2 22 160° S
Sa, 15.06. 20:00 17 3 63 240° SW
Sa, 15.06. 14:00 26 4 41 170° S
Sa, 15.06. 8:00 14 3 29 130° SO
Ortszeit Stärke Spitze Richtung
km/h Bft. km/h Grad Sektor
Mo, 17.06. 2:30 4 1 7 320° NW
Mo, 17.06. 2:20 4 1 - 320° NW
Mo, 17.06. 2:10 4 1 - 340° N
Mo, 17.06. 2:00 4 1 - 300° NW
Mo, 17.06. 1:50 4 1 - 300° NW
Mo, 17.06. 1:40 4 1 - 220° SW
Mo, 17.06. 1:30 6 1 9 230° SW
Mo, 17.06. 1:00 4 1 7 130° SO
Mo, 17.06. 0:30 4 1 7 140° SO
Mo, 17.06. 0:00 4 1 18 80° O
So, 16.06. 23:30 6 1 15 70° O
Ortszeit Untergrenze Bedeckung Gattung
total tief tief mittel hoch
Mo, 17.06. 2:00 1800 m 8/8 8/8 - - -
So, 16.06. 20:00 3000 m 8/8 8/8 - - -
So, 16.06. 14:00 1800 m 3/8 3/8 - - -
So, 16.06. 8:00 2100 m 1/8 1/8 - - -
So, 16.06. 2:00 8100 m 4/8 0/8 - - -
Sa, 15.06. 20:00 - 0/8 0/8 - - -
Sa, 15.06. 14:00 450 m 7/8 7/8 - - -
Sa, 15.06. 8:00 2700 m 7/8 1/8 - - -
Ortszeit Bedeckungsgrad in Achtel und Wolkenuntergrenze
Mo, 17.06. 2:30 4(1800m) 8(2700m)
Mo, 17.06. 2:20 4(1800m) 8(2700m)
Mo, 17.06. 2:10 8
Mo, 17.06. 2:00 6(1800m) 7(2100m) 8(2700m)
Mo, 17.06. 1:50 6(1800m) 7(2100m) 8(2700m)
Mo, 17.06. 1:40 8
Mo, 17.06. 1:30 7(2100m) 8(2700m)
Mo, 17.06. 1:00 7(2400m) 8(3000m)
Mo, 17.06. 0:30 1(1800m) 7(2400m) 8(3000m)
Mo, 17.06. 0:00 1(1500m) 6(2700m) 8(3300m)
So, 16.06. 23:30 4(1500m) 8(3300m) 8(4800m)
Ortszeit Luftdruck NN (hPa) Tendenz (hPa in 3 Std.)
Mo, 17.06. 2:00 1011 + 0,4
So, 16.06. 20:00 1009 + 0,1
So, 16.06. 14:00 1009 0,0
So, 16.06. 8:00 1010 - 0,2
So, 16.06. 2:00 1010 + 0,6
Sa, 15.06. 20:00 1007 + 1,7
Sa, 15.06. 14:00 1004 - 0,3
Sa, 15.06. 8:00 1005 - 1,6
Ortszeit Luftdruck NN (hPa) Tendenz (hPa in 3 Std.)
Mo, 17.06. 2:30 1011 + 0,5
Mo, 17.06. 2:20 1011 keine Meldung
Mo, 17.06. 2:10 1011 keine Meldung
Mo, 17.06. 2:00 1011 + 0,4
Mo, 17.06. 1:50 1011 keine Meldung
Mo, 17.06. 1:40 1011 keine Meldung
Mo, 17.06. 1:30 1011 + 0,6
Mo, 17.06. 1:00 1010 + 0,6
Mo, 17.06. 0:30 1010 + 0,8
Mo, 17.06. 0:00 1010 + 1,3
So, 16.06. 23:30 1010 + 1,3
Ortszeit Schneehöhe (cm)
Mo, 17.06. 2:00 0
So, 16.06. 20:00 0
So, 16.06. 14:00 0
So, 16.06. 8:00 0
So, 16.06. 2:00 0
Sa, 15.06. 20:00 0
Sa, 15.06. 14:00 0
Sa, 15.06. 8:00 0
Ortszeit Schneehöhe (cm)
Mo, 17.06. 2:30 0
Mo, 17.06. 2:20 0
Mo, 17.06. 2:10 -
Mo, 17.06. 2:00 0
Mo, 17.06. 1:50 0
Mo, 17.06. 1:40 -
Mo, 17.06. 1:30 0
Mo, 17.06. 1:00 0
Mo, 17.06. 0:30 0
Mo, 17.06. 0:00 0
So, 16.06. 23:30 0
Link zu dieser Seite / Seite empfehlen

Das Wetter in ...